Airport View

Enter AWOS ICAO identifier for current METAR.

ex. KFNL

KPEA 300515Z AUTO 00000KT 10SM SCT090 00/M02 A3019 RMK AO2 T00031025

30 Oct 2020 05:24

Frequency: 118.875

Phone: 641-628-3459

Other Area AWOS: KOXV - KTNU - KGGI - KOOA

TAF KOTM 292320Z 3000/3024 33009KT P6SM BKN035 FM300200 33006KT P6SM SCT035 FM300800 VRB03KT P6SM FEW070 FM301600 16006KT P6SM FEW070